SBOSBO BWI / KBWI
Speedbird OnlineSpeedbird Online BWI / KBWI

Baltimore/Washington International Thurgood Marshall Airport
18:20 10.8°C

Location Baltimore, United States
Latitude: 39.1754
Longitude: -76.668297
Web Airport Website | Wikipedia
Altitude 45 Meter / 146 Feet
Distance 5,871 KM / 3,648 Miles
from London.
Time Zone UTC -5 hours (America/New_York)
Codes IATA: BWI
ICAO: KBWI
Currency £1 equals USD 1.21
Runways
RunwayLength (m)Surface
041829Asphalt
103201Asphalt
15L1524Asphalt
15R2896Asphalt
221829Asphalt
283201Asphalt
33L2896Asphalt
33R1524Asphalt
Radio
TypeDescriptionFrequency
APPPOTOMAC APP119
ATISATIS115.1
CLDCLNC DEL118.05
DEPPOTOMAC DEP126.75
GNDGND121.9
RDOLEESBURG RDO122.2
TWRTWR119.4
UNICUNICOM122.95
Live ATC
METAR KBWI 081354Z 27005KT 10SM FEW080 SCT110 BKN250 10/03 A3022 RMK AO2 SLP233 T01000033
TAF KBWI 081139Z 0812/0918 VRB03KT P6SM BKN050 OVC140 FM081500 31009KT P6SM SCT250 FM090000 01003KT P6SM FEW200 FM090700 11003KT P6SM BKN150 FM091400 14007KT P6SM OVC040
Weather As Of 08 Feb 2023 18:20
Description Clear sky
Wind 2 km/h from North (352°)
Cloud Cover 0%
Precipitation Rain: none, Snow: none
Sunrise 07:06
Sunset 17:34
Lounges Chesapeake Club Lounge, E
Rotations During the last 90 days there were
61 flights from LHR
17 flights to LHR



Support Speedbird Online

© 2017-2023 Speedbird Online